Time;durP1;ratioP1;P1;durP2;ratioP2;P2;SDS_P1;SDS_P2;PMS_P1;PMS_P2;Temp;Humidity;BMP_temperature;BMP_pressure;BME280_temperature;BME280_humidity;BME280_pressure;Samples;Min_cycle;Max_cycle;Signal;HPM_P1;HPM_P2
2022/08/09 00:02:19;;;;;;;;;;;;;;;23.02;46.84;99576.31;5113533;28;768;-66
2022/08/09 00:04:45;;;;;;;;;;;;;;;23.00;46.88;99575.22;5113067;28;886;-66
2022/08/09 00:07:11;;;;;;;;;;;;;;;23.00;46.60;99570.41;5113223;28;1890;-64
2022/08/09 00:25:19;;;;;;;;;;;;;;;22.57;47.46;99566.47;5071875;28;1909;-66
2022/08/09 00:27:46;;;;;;;;;;;;;;;22.49;47.71;99559.69;5071869;28;858;-66
2022/08/09 00:30:12;;;;;;;;;;;;;;;22.43;47.92;99546.31;5071839;28;879;-65
2022/08/09 00:32:42;;;;;;;;;;;;;;;22.38;47.67;99547.03;5071726;28;859;-66
2022/08/09 00:47:19;;;;;;;;;;;;;;;22.45;47.15;99547.88;5071845;28;1967;-65
2022/08/09 01:02:00;;;;;;;;;;;;;;;23.15;45.64;99528.03;5071616;28;673;-66
2022/08/09 01:04:31;;;;;;;;;;;;;;;23.20;45.48;99520.91;5071533;28;843;-66
2022/08/09 01:07:16;;;;;;;;;;;;;;;23.37;45.59;99527.47;5071292;28;1922;-65
2022/08/09 01:13:09;;;;;;;;;;;;;;;23.23;45.98;99528.34;5071416;28;678;-69
2022/08/09 01:22:20;;;;;;;;;;;;;;;23.07;46.98;99529.72;5087899;28;1311;-67
2022/08/09 01:25:12;;;;;;;;;;;;;;;22.94;47.32;99530.06;5110492;28;807;-64
2022/08/09 01:28:03;;;;;;;;;;;;;;;22.84;47.86;99531.47;5111705;28;1969;-65
2022/08/09 01:31:12;;;;;;;;;;;;;;;22.83;48.07;99527.91;5111788;28;839;-66
2022/08/09 01:33:39;;;;;;;;;;;;;;;22.70;48.41;99521.06;5110846;28;1032;-65
2022/08/09 01:48:26;;;;;;;;;;;;;;;22.26;50.43;99533.28;5111864;28;611;-65
2022/08/09 01:50:54;;;;;;;;;;;;;;;22.22;50.89;99531.44;5111711;28;804;-66
2022/08/09 01:53:24;;;;;;;;;;;;;;;22.25;50.90;99537.34;5110069;28;1229;-65
2022/08/09 02:08:24;;;;;;;;;;;;;;;21.98;53.11;99522.38;5111417;28;688;-65
2022/08/09 02:10:53;;;;;;;;;;;;;;;22.01;53.34;99527.78;5111335;28;870;-66
2022/08/09 02:13:26;;;;;;;;;;;;;;;21.92;53.70;99515.88;5112125;28;835;-66
2022/08/09 02:15:55;;;;;;;;;;;;;;;21.91;54.40;99525.56;5115173;28;983;-66
2022/08/09 02:18:23;;;;;;;;;;;;;;;21.92;54.54;99521.50;5115088;28;870;-64
2022/08/09 02:23:54;;;;;;;;;;;;;;;21.91;55.06;99531.97;5107687;28;1408;-67
2022/08/09 02:29:26;;;;;;;;;;;;;;;21.89;55.72;99526.06;5114826;28;618;-66
2022/08/09 02:31:57;;;;;;;;;;;;;;;21.87;56.10;99527.78;5114747;28;948;-66
2022/08/09 02:37:27;;;;;;;;;;;;;;;21.72;56.97;99517.34;5114753;28;626;-66
2022/08/09 02:39:59;;;;;;;;;;;;;;;21.67;57.38;99528.50;5114534;28;922;-65
2022/08/09 02:42:29;;;;;;;;;;;;;;;21.58;57.86;99523.75;5114563;28;799;-65
2022/08/09 02:45:02;;;;;;;;;;;;;;;21.54;58.00;99526.75;5114669;28;858;-65
2022/08/09 02:47:31;;;;;;;;;;;;;;;21.53;58.34;99527.22;5114346;28;1889;-66
2022/08/09 02:50:08;;;;;;;;;;;;;;;21.51;58.95;99524.94;5114624;28;893;-66
2022/08/09 02:52:54;;;;;;;;;;;;;;;21.47;59.69;99527.16;5112967;28;1300;-66
2022/08/09 02:55:28;;;;;;;;;;;;;;;21.50;60.16;99519.78;5114269;28;866;-66
2022/08/09 02:57:58;;;;;;;;;;;;;;;21.49;60.83;99521.06;5114226;28;835;-66
2022/08/09 03:00:25;;;;;;;;;;;;;;;21.48;61.10;99516.69;5112817;28;1380;-65
2022/08/09 03:02:56;;;;;;;;;;;;;;;21.50;61.54;99512.13;5114270;28;858;-66
2022/08/09 03:05:23;;;;;;;;;;;;;;;21.50;62.03;99519.78;5114337;28;827;-65
2022/08/09 03:07:54;;;;;;;;;;;;;;;21.48;62.38;99511.06;5114113;28;1889;-66
2022/08/09 03:10:32;;;;;;;;;;;;;;;21.44;62.65;99516.09;5113971;28;873;-66
2022/08/09 03:13:40;;;;;;;;;;;;;;;;;;;;;
2022/08/09 03:19:11;;;;;;;;;;;;;;;21.65;62.21;99519.78;5113813;28;611;-66
2022/08/09 03:21:39;;;;;;;;;;;;;;;21.63;62.22;99517.44;5113747;28;855;-66
2022/08/09 03:24:17;;;;;;;;;;;;;;;21.70;62.04;99521.91;5113455;28;1425;-65
2022/08/09 03:30:06;;;;;;;;;;;;;;;21.84;61.77;99514.72;5113653;28;603;-66
2022/08/09 03:32:33;;;;;;;;;;;;;;;21.79;62.41;99508.50;5112209;28;1230;-66
2022/08/09 03:37:54;;;;;;;;;;;;;;;21.79;62.40;99513.38;5113381;28;1091;-66
2022/08/09 03:40:21;;;;;;;;;;;;;;;21.89;61.71;99508.38;5114013;28;835;-65
2022/08/09 03:42:48;;;;;;;;;;;;;;;21.92;61.72;99507.44;5112214;28;1197;-65
2022/08/09 03:45:14;;;;;;;;;;;;;;;21.93;61.87;99526.63;5113412;28;846;-65
2022/08/09 03:47:41;;;;;;;;;;;;;;;21.96;61.65;99530.50;5113318;28;1964;-66
2022/08/09 03:50:19;;;;;;;;;;;;;;;21.98;61.91;99530.81;5113534;28;819;-65
2022/08/09 03:52:46;;;;;;;;;;;;;;;22.06;61.73;99531.16;5113064;28;854;-67
2022/08/09 03:55:15;;;;;;;;;;;;;;;22.10;61.39;99538.13;5113117;28;902;-66
2022/08/09 03:57:42;;;;;;;;;;;;;;;22.18;61.04;99525.22;5113077;28;842;-65
2022/08/09 04:00:09;;;;;;;;;;;;;;;22.24;61.23;99533.00;5113034;27;878;-66
2022/08/09 04:05:40;;;;;;;;;;;;;;;22.22;61.07;99531.44;5112857;28;1898;-69
2022/08/09 04:08:14;;;;;;;;;;;;;;;22.24;61.65;99530.97;5113197;28;858;-67
2022/08/09 04:10:41;;;;;;;;;;;;;;;22.24;61.45;99533.00;5113073;28;855;-65
2022/08/09 04:13:35;;;;;;;;;;;;;;;22.27;61.63;99529.19;5112813;28;807;-65
2022/08/09 04:16:03;;;;;;;;;;;;;;;22.28;62.10;99533.56;5111038;28;1241;-65
2022/08/09 04:18:29;;;;;;;;;;;;;;;22.31;62.01;99546.66;5112634;28;873;-67
2022/08/09 04:20:55;;;;;;;;;;;;;;;22.33;62.14;99538.50;5111235;28;1178;-65
2022/08/09 04:26:55;;;;;;;;;;;;;;;22.44;62.02;99555.53;5100273;28;1984;-65
2022/08/09 04:29:21;;;;;;;;;;;;;;;22.50;61.28;99547.94;5111390;28;1293;-65
2022/08/09 04:31:50;;;;;;;;;;;;;;;22.57;61.42;99555.19;5112840;28;851;-65
2022/08/09 04:37:19;;;;;;;;;;;;;;;22.78;60.52;99551.13;5111984;28;673;-65
2022/08/09 04:42:48;;;;;;;;;;;;;;;23.06;59.14;99547.13;5112283;28;693;-66
2022/08/09 04:45:15;;;;;;;;;;;;;;;23.17;58.71;99555.69;5112205;28;890;-64
2022/08/09 04:47:44;;;;;;;;;;;;;;;23.31;58.62;99549.19;5112091;28;1922;-68
2022/08/09 05:02:23;;;;;;;;;;;;;;;23.65;57.82;99541.06;5112423;28;602;-65
2022/08/09 05:04:50;;;;;;;;;;;;;;;23.71;57.77;99550.34;5111988;28;803;-64
2022/08/09 05:07:18;;;;;;;;;;;;;;;23.76;57.74;99551.69;5111904;28;1941;-65
2022/08/09 05:12:47;;;;;;;;;;;;;;;23.87;57.84;99559.47;5111974;28;661;-64
2022/08/09 05:18:41;;;;;;;;;;;;;;;24.03;57.40;99567.31;5111918;28;618;-64
2022/08/09 05:21:20;;;;;;;;;;;;;;;24.09;57.76;99570.94;5111658;28;811;-65
2022/08/09 05:36:29;;;;;;;;;;;;;;;24.68;56.52;99575.19;5111032;28;1084;-65
2022/08/09 05:38:56;;;;;;;;;;;;;;;24.96;55.56;99566.06;5111788;28;930;-64
2022/08/09 05:44:26;;;;;;;;;;;;;;;25.58;54.00;99578.34;5111675;28;661;-63
2022/08/09 05:46:52;;;;;;;;;;;;;;;25.91;53.03;99576.84;5111521;28;1980;-65
2022/08/09 05:49:19;;;;;;;;;;;;;;;26.25;51.94;99571.91;5113954;28;874;-64
2022/08/09 05:51:45;;;;;;;;;;;;;;;26.36;51.70;99570.38;5115507;28;847;-64
2022/08/09 05:54:14;;;;;;;;;;;;;;;26.48;51.03;99566.97;5115560;28;883;-63
2022/08/09 05:56:41;;;;;;;;;;;;;;;26.66;51.04;99562.81;5115381;28;1291;-66
2022/08/09 06:14:34;;;;;;;;;;;;;;;28.54;46.45;99574.50;5115096;28;693;-64
2022/08/09 06:17:01;;;;;;;;;;;;;;;28.66;45.62;99579.53;5115522;28;1030;-66
2022/08/09 06:19:30;;;;;;;;;;;;;;;28.69;45.09;99574.84;5114873;28;815;-65
2022/08/09 06:21:58;;;;;;;;;;;;;;;28.74;45.19;99574.00;5111343;28;1491;-64
2022/08/09 06:24:28;;;;;;;;;;;;;;;29.25;43.45;99567.69;5114826;28;854;-63
2022/08/09 06:26:53;;;;;;;;;;;;;;;29.86;42.39;99566.00;5113519;28;1909;-64
2022/08/09 06:29:25;;;;;;;;;;;;;;;30.36;41.66;99559.97;5114781;28;894;-63
2022/08/09 06:31:55;;;;;;;;;;;;;;;30.73;40.71;99565.47;5115121;28;883;-62
2022/08/09 06:34:21;;;;;;;;;;;;;;;30.86;40.40;99564.72;5112476;28;1301;-65
2022/08/09 06:37:16;;;;;;;;;;;;;;;31.04;39.45;99562.28;5114702;28;870;-63
2022/08/09 06:51:54;;;;;;;;;;;;;;;31.57;37.99;99564.22;5114717;28;674;-63
2022/08/09 06:57:25;;;;;;;;;;;;;;;32.65;35.09;99572.41;5114964;28;712;-63
2022/08/09 06:59:52;;;;;;;;;;;;;;;32.69;35.38;99563.44;5114118;28;1153;-64
2022/08/09 07:02:28;;;;;;;;;;;;;;;32.90;33.96;99567.00;5114492;28;906;-63
2022/08/09 07:04:58;;;;;;;;;;;;;;;33.02;33.50;99561.69;5114128;28;910;-63
2022/08/09 07:20:04;;;;;;;;;;;;;;;32.74;34.97;99580.44;5114219;28;591;-64
2022/08/09 07:22:33;;;;;;;;;;;;;;;32.76;34.50;99571.31;5112405;28;1471;-63
2022/08/09 07:25:29;;;;;;;;;;;;;;;32.65;34.35;99577.34;5113753;28;803;-64
2022/08/09 07:28:05;;;;;;;;;;;;;;;32.99;34.01;99579.22;5113642;28;1901;-63
2022/08/09 07:33:39;;;;;;;;;;;;;;;33.65;33.16;99586.38;5105682;28;1228;-63
2022/08/09 07:36:19;;;;;;;;;;;;;;;33.64;32.36;99570.53;5113201;28;1368;-63
2022/08/09 07:38:46;;;;;;;;;;;;;;;33.92;33.04;99586.78;5113761;28;858;-64
2022/08/09 07:41:14;;;;;;;;;;;;;;;34.61;31.30;99588.88;5113448;28;854;-63
2022/08/09 07:43:40;;;;;;;;;;;;;;;35.18;30.72;99588.34;5113353;28;885;-63
2022/08/09 07:46:07;;;;;;;;;;;;;;;35.49;29.54;99585.34;5111940;28;1902;-64
2022/08/09 07:48:33;;;;;;;;;;;;;;;35.23;29.55;99592.34;5111907;28;1221;-63
2022/08/09 07:51:00;;;;;;;;;;;;;;;35.46;29.59;99592.97;5113340;28;822;-64
2022/08/09 07:53:27;;;;;;;;;;;;;;;36.25;28.87;99591.91;5113439;28;919;-64
2022/08/09 07:58:59;;;;;;;;;;;;;;;35.91;28.00;99593.31;5113094;28;614;-64
2022/08/09 08:01:26;;;;;;;;;;;;;;;36.11;27.91;99586.44;5113028;28;874;-64
2022/08/09 08:03:52;;;;;;;;;;;;;;;36.32;27.26;99594.72;5112989;28;827;-63
2022/08/09 08:06:18;;;;;;;;;;;;;;;36.21;27.34;99583.72;5112874;28;1945;-64
2022/08/09 08:08:50;;;;;;;;;;;;;;;36.70;26.84;99576.34;5113200;28;811;-64
2022/08/09 08:11:17;;;;;;;;;;;;;;;37.08;25.81;99577.22;5112280;28;866;-63
2022/08/09 08:13:43;;;;;;;;;;;;;;;36.78;25.66;99576.22;5113136;28;811;-64
2022/08/09 08:16:09;;;;;;;;;;;;;;;37.03;24.88;99573.25;5113086;28;915;-65
2022/08/09 08:18:56;;;;;;;;;;;;;;;37.02;23.50;99580.34;5113191;28;800;-63
2022/08/09 08:21:25;;;;;;;;;;;;;;;36.65;22.78;99573.69;5112569;28;866;-64
2022/08/09 08:23:55;;;;;;;;;;;;;;;36.39;24.96;99587.38;5112833;28;913;-63
2022/08/09 08:26:22;;;;;;;;;;;;;;;36.81;23.96;99580.03;5112472;28;1905;-64
2022/08/09 08:28:47;;;;;;;;;;;;;;;36.79;23.88;99575.66;5112584;28;890;-64
2022/08/09 08:31:27;;;;;;;;;;;;;;;37.24;24.33;99575.69;5112556;28;831;-64
2022/08/09 08:36:57;;;;;;;;;;;;;;;37.58;22.78;99583.50;5094455;28;1360;-64
2022/08/09 08:39:33;;;;;;;;;;;;;;;37.34;22.93;99578.63;5112529;28;815;-64
2022/08/09 08:41:59;;;;;;;;;;;;;;;36.84;23.64;99585.38;5111003;28;941;-64
2022/08/09 08:44:28;;;;;;;;;;;;;;;36.52;23.75;99569.00;5112283;28;870;-65
2022/08/09 08:46:59;;;;;;;;;;;;;;;36.54;23.75;99572.81;5112144;28;1970;-64
2022/08/09 08:49:27;;;;;;;;;;;;;;;37.14;23.64;99586.38;5112577;28;869;-63
2022/08/09 08:51:55;;;;;;;;;;;;;;;37.29;23.65;99582.53;5110824;28;1306;-64
2022/08/09 08:54:22;;;;;;;;;;;;;;;36.85;22.66;99584.03;5112158;28;827;-63
2022/08/09 08:56:48;;;;;;;;;;;;;;;36.38;23.34;99574.31;5112032;28;869;-64
2022/08/09 08:59:14;;;;;;;;;;;;;;;36.38;23.59;99565.69;5110821;28;1225;-63
2022/08/09 09:01:43;;;;;;;;;;;;;;;36.42;23.27;99565.28;5112255;28;831;-64
2022/08/09 09:04:39;;;;;;;;;;;;;;;36.11;24.06;99569.19;5111984;28;886;-63
2022/08/09 09:07:09;;;;;;;;;;;;;;;35.67;24.25;99571.81;5111877;28;1940;-65
2022/08/09 09:09:38;;;;;;;;;;;;;;;35.45;25.81;99544.75;5111956;28;937;-64
2022/08/09 09:12:08;;;;;;;;;;;;;;;35.31;25.10;99555.72;5110538;28;1336;-64
2022/08/09 09:14:43;;;;;;;;;;;;;;;35.97;24.64;99562.94;5110585;28;1480;-64
2022/08/09 09:17:13;;;;;;;;;;;;;;;35.90;23.71;99565.91;5110580;28;1320;-63
2022/08/09 09:19:42;;;;;;;;;;;;;;;35.77;24.91;99558.34;5110577;28;1171;-63
2022/08/09 09:22:15;;;;;;;;;;;;;;;35.54;25.58;99559.22;5112281;28;877;-63
2022/08/09 09:24:51;;;;;;;;;;;;;;;35.58;25.65;99559.59;5116271;28;910;-63
2022/08/09 09:27:25;;;;;;;;;;;;;;;35.84;24.99;99571.88;5116211;28;1886;-63
2022/08/09 09:29:54;;;;;;;;;;;;;;;36.03;21.48;99554.09;5115952;28;831;-63
2022/08/09 10:06:06;;;;;;;;;;;;;;;36.82;22.15;99529.75;5054706;28;1963;-65
2022/08/09 10:08:32;;;;;;;;;;;;;;;37.22;20.93;99540.22;5054600;28;884;-64
2022/08/09 10:23:13;;;;;;;;;;;;;;;36.96;20.07;99520.16;5054853;28;626;-64
2022/08/09 10:25:44;;;;;;;;;;;;;;;36.90;19.48;99511.00;5054364;28;902;-65
2022/08/09 10:28:12;;;;;;;;;;;;;;;36.35;17.94;99515.09;5054441;28;901;-65
2022/08/09 10:42:49;;;;;;;;;;;;;;;36.66;16.28;99495.41;5054319;28;674;-65
2022/08/09 10:45:28;;;;;;;;;;;;;;;37.09;15.70;99496.00;5053959;28;922;-64
2022/08/09 10:47:59;;;;;;;;;;;;;;;37.13;15.01;99507.84;5053854;28;1890;-64
2022/08/09 11:06:07;;;;;;;;;;;;;;;38.25;13.47;99492.03;5042446;28;1961;-64
2022/08/09 11:08:42;;;;;;;;;;;;;;;38.59;13.77;99482.34;5053516;28;879;-65
2022/08/09 11:23:20;;;;;;;;;;;;;;;39.31;12.97;99495.47;5053866;28;698;-65
2022/08/09 11:25:46;;;;;;;;;;;;;;;38.97;12.06;99469.25;5053706;28;1969;-66
2022/08/09 11:28:28;;;;;;;;;;;;;;;38.43;11.85;99498.44;5053114;28;823;-65
2022/08/09 11:30:56;;;;;;;;;;;;;;;37.74;13.41;99477.34;5052993;28;819;-64
2022/08/09 11:45:42;;;;;;;;;;;;;;;37.66;12.45;99478.84;5052376;28;619;-66
2022/08/09 11:48:11;;;;;;;;;;;;;;;38.02;13.29;99477.25;5052563;28;1926;-65
2022/08/09 11:50:56;;;;;;;;;;;;;;;38.72;12.21;99466.69;5052761;28;891;-65
2022/08/09 11:53:25;;;;;;;;;;;;;;;38.49;12.37;99467.16;5052644;28;835;-65
2022/08/09 12:08:18;;;;;;;;;;;;;;;39.61;11.03;99450.63;5048088;28;1388;-65
2022/08/09 12:23:00;;;;;;;;;;;;;;;39.34;12.44;99445.09;5052436;28;603;-66
2022/08/09 12:25:27;;;;;;;;;;;;;;;40.18;11.88;99439.28;5052076;28;937;-66
2022/08/09 12:31:30;;;;;;;;;;;;;;;41.13;11.12;99437.47;5051961;28;618;-65
2022/08/09 12:33:58;;;;;;;;;;;;;;;41.50;10.88;99408.63;5047709;28;952;-68
2022/08/09 12:36:27;;;;;;;;;;;;;;;41.93;11.18;99430.78;5051850;28;843;-66
2022/08/09 12:38:54;;;;;;;;;;;;;;;41.91;10.46;99457.53;5051794;28;875;-65
2022/08/09 12:41:27;;;;;;;;;;;;;;;41.16;10.77;99431.22;5051702;28;840;-65
2022/08/09 12:56:09;;;;;;;;;;;;;;;42.18;10.62;99421.38;5052324;28;642;-65
2022/08/09 12:59:02;;;;;;;;;;;;;;;41.56;10.60;99417.69;5051130;28;863;-65
2022/08/09 13:01:28;;;;;;;;;;;;;;;41.18;10.69;99413.97;5051607;28;1399;-65
2022/08/09 13:04:01;;;;;;;;;;;;;;;41.59;10.83;99415.72;5050232;28;1298;-65
2022/08/09 13:16:39;;;;;;;;;;;;;;;41.13;11.10;99402.72;5026716;28;1218;-66
2022/08/09 13:19:09;;;;;;;;;;;;;;;40.50;10.82;99384.94;5011547;28;1083;-64
2022/08/09 13:21:35;;;;;;;;;;;;;;;40.16;10.98;99416.00;5011675;28;844;-65
2022/08/09 13:24:12;;;;;;;;;;;;;;;40.02;11.54;99401.34;5011645;28;812;-64
2022/08/09 13:26:57;;;;;;;;;;;;;;;39.98;11.65;99401.81;5011535;28;2009;-66
2022/08/09 13:29:24;;;;;;;;;;;;;;;39.89;11.66;99396.88;5011526;28;812;-67
2022/08/09 13:32:05;;;;;;;;;;;;;;;39.38;12.26;99399.13;5011555;28;808;-66
2022/08/09 13:46:42;;;;;;;;;;;;;;;37.70;12.33;99410.72;5011651;28;1961;-64
2022/08/09 13:49:08;;;;;;;;;;;;;;;37.76;12.68;99416.94;5011462;28;831;-66
2022/08/09 13:51:41;;;;;;;;;;;;;;;37.84;12.48;99404.53;5011457;28;823;-66
2022/08/09 13:54:07;;;;;;;;;;;;;;;37.90;12.53;99402.88;5011376;28;832;-66
2022/08/09 13:56:34;;;;;;;;;;;;;;;38.16;12.35;99412.78;5010117;28;1370;-65
2022/08/09 13:58:59;;;;;;;;;;;;;;;38.85;11.94;99406.94;5011247;28;840;-65
2022/08/09 14:01:26;;;;;;;;;;;;;;;38.85;12.05;99409.81;5011659;28;916;-66
2022/08/09 14:04:02;;;;;;;;;;;;;;;38.88;11.45;99402.78;5011608;28;863;-64
2022/08/09 14:06:28;;;;;;;;;;;;;;;38.72;12.08;99408.94;5010024;28;1943;-66
2022/08/09 14:09:08;;;;;;;;;;;;;;;38.87;12.05;99402.03;5011473;28;836;-65
2022/08/09 14:11:34;;;;;;;;;;;;;;;38.40;12.87;99413.06;5014915;28;887;-66
2022/08/09 14:14:03;;;;;;;;;;;;;;;38.31;13.54;99396.53;5014778;28;891;-66
2022/08/09 14:16:29;;;;;;;;;;;;;;;38.00;13.38;99397.09;5014796;28;891;-65
2022/08/09 14:18:55;;;;;;;;;;;;;;;37.72;13.58;99405.09;5052149;28;1284;-65
2022/08/09 14:21:22;;;;;;;;;;;;;;;37.77;13.64;99406.19;5054408;28;902;-66
2022/08/09 14:23:52;;;;;;;;;;;;;;;37.56;13.47;99398.88;5054313;28;1056;-65
2022/08/09 14:26:20;;;;;;;;;;;;;;;37.09;13.55;99398.06;5054069;28;1909;-64
2022/08/09 14:32:34;;;;;;;;;;;;;;;36.62;14.58;99397.19;5019769;28;1109;-64
2022/08/09 14:35:00;;;;;;;;;;;;;;;36.21;14.91;99393.06;5054135;28;800;-66
2022/08/09 14:37:25;;;;;;;;;;;;;;;36.05;15.02;99398.22;5054135;28;828;-65
2022/08/09 14:39:51;;;;;;;;;;;;;;;35.63;15.30;99394.00;5054024;28;871;-66
2022/08/09 14:42:19;;;;;;;;;;;;;;;35.17;15.37;99398.03;5054030;28;910;-66
2022/08/09 14:44:47;;;;;;;;;;;;;;;35.01;16.40;99384.34;5052602;28;1323;-66
2022/08/09 14:47:14;;;;;;;;;;;;;;;35.02;16.11;99394.50;5053882;28;1898;-66
2022/08/09 14:49:41;;;;;;;;;;;;;;;35.11;16.21;99396.72;5053808;28;824;-65
2022/08/09 14:52:08;;;;;;;;;;;;;;;35.31;16.24;99401.38;5053840;28;922;-64
2022/08/09 14:54:34;;;;;;;;;;;;;;;35.16;15.73;99392.88;5053788;28;836;-66
2022/08/09 14:57:07;;;;;;;;;;;;;;;35.05;16.06;99394.06;5053646;28;812;-66
2022/08/09 14:59:34;;;;;;;;;;;;;;;35.04;16.16;99401.19;5053573;28;827;-65
2022/08/09 15:02:00;;;;;;;;;;;;;;;34.87;16.00;99389.63;5054106;28;918;-67
2022/08/09 15:04:30;;;;;;;;;;;;;;;34.60;16.05;99397.97;5053586;28;836;-67
2022/08/09 15:06:57;;;;;;;;;;;;;;;34.25;16.98;99401.38;5053443;28;1890;-65
2022/08/09 15:09:25;;;;;;;;;;;;;;;34.16;17.11;99390.50;5053585;28;871;-66
2022/08/09 15:11:51;;;;;;;;;;;;;;;34.30;16.46;99391.03;5053376;28;921;-66
2022/08/09 15:24:16;;;;;;;;;;;;;;;34.73;15.85;99383.38;5028525;28;1262;-66
2022/08/09 15:27:09;;;;;;;;;;;;;;;34.91;16.56;99390.75;5012047;28;1910;-66
2022/08/09 15:30:15;;;;;;;;;;;;;;;35.21;16.51;99385.38;5013378;28;887;-66
2022/08/09 15:32:42;;;;;;;;;;;;;;;35.17;16.89;99389.44;5013553;28;884;-66
2022/08/09 15:35:10;;;;;;;;;;;;;;;35.23;17.20;99379.81;5011969;28;1254;-66
2022/08/09 15:37:38;;;;;;;;;;;;;;;35.09;17.02;99377.22;5013625;28;801;-66
2022/08/09 15:40:04;;;;;;;;;;;;;;;34.69;17.03;99391.63;5013205;28;807;-65
2022/08/09 15:42:31;;;;;;;;;;;;;;;34.67;17.23;99377.84;5013259;28;862;-66
2022/08/09 15:44:59;;;;;;;;;;;;;;;34.57;17.93;99394.91;5013111;28;815;-66
2022/08/09 15:47:36;;;;;;;;;;;;;;;34.02;17.95;99392.81;5011702;28;2043;-65
2022/08/09 15:50:08;;;;;;;;;;;;;;;33.33;18.82;99384.28;5013373;28;808;-66
2022/08/09 15:55:38;;;;;;;;;;;;;;;32.54;19.89;99392.53;5012947;28;617;-65
2022/08/09 15:58:04;;;;;;;;;;;;;;;32.39;19.87;99390.34;5013137;28;911;-66
2022/08/09 16:03:35;;;;;;;;;;;;;;;32.01;20.85;99393.00;5011783;28;1235;-66
2022/08/09 16:06:01;;;;;;;;;;;;;;;31.86;20.95;99390.81;5012858;28;1894;-66
2022/08/09 16:08:29;;;;;;;;;;;;;;;31.71;20.96;99388.59;5012909;28;820;-67
2022/08/09 16:10:56;;;;;;;;;;;;;;;31.58;21.83;99385.81;5012654;28;887;-67
2022/08/09 16:13:23;;;;;;;;;;;;;;;31.42;22.05;99397.09;5011448;28;1219;-65
2022/08/09 16:15:50;;;;;;;;;;;;;;;31.30;21.89;99393.78;5012529;28;880;-66
2022/08/09 16:18:17;;;;;;;;;;;;;;;31.21;22.26;99399.22;5012586;28;809;-67
2022/08/09 16:20:44;;;;;;;;;;;;;;;31.18;22.35;99395.38;5012455;28;918;-67
2022/08/09 16:23:11;;;;;;;;;;;;;;;31.07;22.73;99395.66;5012664;28;907;-66
2022/08/09 16:25:38;;;;;;;;;;;;;;;30.90;23.28;99401.78;5038420;28;1278;-67
2022/08/09 16:28:05;;;;;;;;;;;;;;;30.74;23.70;99397.94;5050669;28;1909;-67
2022/08/09 16:30:32;;;;;;;;;;;;;;;30.59;23.72;99398.53;5051962;28;827;-66
2022/08/09 16:33:08;;;;;;;;;;;;;;;30.43;24.26;99400.47;5050079;28;1242;-66
2022/08/09 16:35:40;;;;;;;;;;;;;;;30.24;24.39;99396.97;5051935;28;886;-66
2022/08/09 16:38:07;;;;;;;;;;;;;;;30.09;24.63;99406.06;5050541;28;1293;-67
2022/08/09 16:40:33;;;;;;;;;;;;;;;29.88;25.16;99403.88;5050543;28;1238;-66
2022/08/09 16:43:06;;;;;;;;;;;;;;;29.74;25.48;99408.00;5050421;28;1226;-66
2022/08/09 16:45:32;;;;;;;;;;;;;;;29.67;25.44;99408.63;5051783;28;828;-66
2022/08/09 16:48:14;;;;;;;;;;;;;;;29.55;25.65;99413.75;5051623;28;1885;-66
2022/08/09 16:50:41;;;;;;;;;;;;;;;29.42;26.10;99403.09;5051700;28;824;-66
2022/08/09 16:53:07;;;;;;;;;;;;;;;29.30;26.30;99416.78;5051626;28;969;-65
2022/08/09 16:55:34;;;;;;;;;;;;;;;29.26;26.57;99415.56;5051566;28;843;-67
2022/08/09 16:58:00;;;;;;;;;;;;;;;29.10;26.82;99409.63;5051523;28;843;-66
2022/08/09 17:00:27;;;;;;;;;;;;;;;28.90;27.09;99416.59;5051468;28;916;-66
2022/08/09 17:02:53;;;;;;;;;;;;;;;28.77;27.67;99415.78;5051553;28;867;-66
2022/08/09 17:05:20;;;;;;;;;;;;;;;28.55;28.02;99414.78;5051412;28;903;-66
2022/08/09 17:07:47;;;;;;;;;;;;;;;28.42;27.82;99411.81;5051470;28;1945;-65
2022/08/09 17:10:16;;;;;;;;;;;;;;;28.30;28.27;99414.03;5051767;28;844;-66
2022/08/09 17:12:43;;;;;;;;;;;;;;;28.14;28.75;99418.59;5051427;28;856;-66
2022/08/09 17:15:10;;;;;;;;;;;;;;;27.96;28.91;99419.34;5051264;28;796;-65
2022/08/09 17:17:36;;;;;;;;;;;;;;;27.85;29.14;99421.00;5051389;28;867;-66
2022/08/09 17:20:04;;;;;;;;;;;;;;;27.80;28.74;99416.13;5050008;28;1333;-66
2022/08/09 17:22:31;;;;;;;;;;;;;;;27.67;29.19;99416.78;5051269;28;816;-66
2022/08/09 17:24:59;;;;;;;;;;;;;;;27.44;29.29;99413.38;5049637;28;1286;-66
2022/08/09 17:27:26;;;;;;;;;;;;;;;27.22;30.07;99416.38;5051276;28;1910;-66
2022/08/09 17:29:54;;;;;;;;;;;;;;;27.06;29.83;99415.22;5051437;28;812;-67
2022/08/09 17:32:22;;;;;;;;;;;;;;;26.95;30.13;99423.78;5051394;28;819;-66
2022/08/09 17:34:48;;;;;;;;;;;;;;;26.83;30.33;99418.19;5051274;28;859;-66
2022/08/09 17:37:15;;;;;;;;;;;;;;;26.68;30.62;99423.44;5051185;28;835;-66
2022/08/09 17:39:41;;;;;;;;;;;;;;;26.49;30.96;99426.06;5051129;28;886;-66
2022/08/09 17:42:07;;;;;;;;;;;;;;;26.38;31.01;99420.47;5051140;28;820;-65
2022/08/09 17:56:46;;;;;;;;;;;;;;;26.10;31.25;99435.50;5055474;28;697;-66
2022/08/09 17:59:12;;;;;;;;;;;;;;;25.87;32.05;99441.19;5055068;28;839;-66
2022/08/09 18:01:40;;;;;;;;;;;;;;;25.65;32.49;99441.22;5053943;28;1325;-66
2022/08/09 18:04:06;;;;;;;;;;;;;;;25.43;32.80;99442.78;5054958;28;899;-66
2022/08/09 18:06:33;;;;;;;;;;;;;;;25.21;33.24;99443.53;5054915;28;1959;-66
2022/08/09 18:09:09;;;;;;;;;;;;;;;24.90;33.97;99443.72;5054884;28;874;-66
2022/08/09 18:11:37;;;;;;;;;;;;;;;24.63;33.82;99446.72;5054577;28;847;-66
2022/08/09 18:14:12;;;;;;;;;;;;;;;24.64;33.32;99455.97;5054535;28;816;-67
2022/08/09 18:16:39;;;;;;;;;;;;;;;24.60;33.41;99453.41;5054821;28;803;-66
2022/08/09 18:19:05;;;;;;;;;;;;;;;24.49;33.54;99456.19;5054405;28;825;-66
2022/08/09 18:21:32;;;;;;;;;;;;;;;24.47;33.21;99461.53;5054426;28;879;-66
2022/08/09 18:36:55;;;;;;;;;;;;;;;24.00;33.12;99459.00;5046144;28;1229;-66
2022/08/09 18:39:23;;;;;;;;;;;;;;;23.99;32.87;99460.28;5053072;28;1263;-66
2022/08/09 18:41:51;;;;;;;;;;;;;;;23.95;32.82;99464.63;5053955;28;833;-66
2022/08/09 18:44:18;;;;;;;;;;;;;;;23.93;32.63;99458.69;5054046;28;852;-66
2022/08/09 18:46:45;;;;;;;;;;;;;;;23.99;32.34;99462.34;5053896;28;1902;-66
2022/08/09 18:49:16;;;;;;;;;;;;;;;24.02;32.37;99464.13;5053888;28;825;-66
2022/08/09 18:51:43;;;;;;;;;;;;;;;24.11;32.06;99465.97;5053894;28;903;-66
2022/08/09 18:54:10;;;;;;;;;;;;;;;24.08;32.07;99472.66;5053943;28;805;-66
2022/08/09 18:56:36;;;;;;;;;;;;;;;24.06;32.41;99467.50;5053386;28;870;-67
2022/08/09 18:59:03;;;;;;;;;;;;;;;24.18;32.08;99474.75;5052705;28;1058;-66
2022/08/09 19:01:30;;;;;;;;;;;;;;;24.24;32.14;99466.31;5054232;28;933;-66
2022/08/09 19:03:56;;;;;;;;;;;;;;;24.11;32.40;99468.81;5053785;28;909;-66
2022/08/09 19:06:23;;;;;;;;;;;;;;;23.98;32.47;99472.06;5053655;28;1882;-66
2022/08/09 19:08:50;;;;;;;;;;;;;;;23.94;32.52;99471.53;5054217;28;765;-67
2022/08/09 19:11:16;;;;;;;;;;;;;;;23.87;32.46;99466.34;5054122;28;875;-67
2022/08/09 19:13:42;;;;;;;;;;;;;;;23.89;32.43;99470.22;5052465;28;1207;-66
2022/08/09 19:16:09;;;;;;;;;;;;;;;23.88;32.50;99477.16;5053413;28;808;-67
2022/08/09 19:18:36;;;;;;;;;;;;;;;23.89;32.63;99475.09;5053419;28;886;-67
2022/08/09 19:21:04;;;;;;;;;;;;;;;24.07;32.15;99480.34;5053376;28;851;-66
2022/08/09 19:26:56;;;;;;;;;;;;;;;24.18;32.27;99514.28;5053133;28;1885;-67
2022/08/09 19:29:23;;;;;;;;;;;;;;;24.08;31.85;99501.63;5053200;28;839;-67
2022/08/09 19:31:50;;;;;;;;;;;;;;;24.03;32.35;99485.44;5053354;28;878;-66
2022/08/09 19:34:17;;;;;;;;;;;;;;;23.92;32.13;99486.16;5053191;28;823;-66
2022/08/09 19:36:43;;;;;;;;;;;;;;;23.85;32.43;99489.41;5052737;28;1274;-66
2022/08/09 19:39:23;;;;;;;;;;;;;;;23.77;32.39;99491.94;5052997;28;918;-66
2022/08/09 19:41:52;;;;;;;;;;;;;;;23.68;32.64;99489.25;5052935;28;856;-66
2022/08/09 19:44:17;;;;;;;;;;;;;;;23.60;33.15;99488.19;5051626;28;1250;-66
2022/08/09 19:46:44;;;;;;;;;;;;;;;23.57;33.10;99483.53;5052806;28;1905;-66
2022/08/09 19:49:11;;;;;;;;;;;;;;;23.59;33.29;99489.47;5052845;28;807;-67
2022/08/09 19:51:39;;;;;;;;;;;;;;;23.57;33.31;99483.53;5051380;28;1358;-66
2022/08/09 19:54:07;;;;;;;;;;;;;;;23.59;33.46;99489.47;5052620;28;820;-66
2022/08/09 19:56:43;;;;;;;;;;;;;;;23.59;33.69;99486.63;5052898;28;875;-66
2022/08/09 19:59:09;;;;;;;;;;;;;;;23.56;34.38;99490.47;5052551;28;839;-66
2022/08/09 20:01:36;;;;;;;;;;;;;;;23.54;34.54;99490.97;5052833;28;986;-66